Historique des mesures à Cassis (13260), France
Quotidien Résumé Fevrier 24, 2017 Unités:  Métrique    US   Métrique/US
« Précédent (Jour)
Suivant (Jour) »
Quotidien Hebdomadaire Mensuel Annuel Période au choix
  Maximum: Minimum: Moyenne:
Température: TemperatureC °C 9.2 °C 11.7 °C
Point de rosée: DewpointC °C -1.4 °C 4.7 °C
Humidité: Humidity % 40 % 61 %
Vitesse du vent: 0 km/h 0 km/h 22.9 km/h
Rafales: 0 km/h - -
Vent:- - SW
Pression: PressurehPa hPa 1004.3 hPa -
Précipitations: 0.0 mm    
Historical Graphs
 
 
Mesures pour : Fevrier 24, 2017
Heure Temperature Point de rosée Pression Vent Vitesse du vent Rafales Humidité Pluie (par heure) Conditions
TemperatureC °C DewpointC °C PressurehPa hPa Calm     Humidity % HourlyPrecipMM mm SoftwareType W/m2
00:10 12.4 °C 8.7 °C 1009.7 hPa Calm     78 % 0.0 mm open2300-1.11 W/m2
01:11 12.1 °C 8.8 °C 1009.4 hPa Calm   2.3 km/h 80 % 0.0 mm open2300-1.11 W/m2
02:10 12.4 °C 9.2 °C 1008.7 hPa Calm     81 % 0.0 mm open2300-1.11 W/m2
03:11 12.4 °C 9.4 °C 1008.4 hPa NE 5.6 km/h 5.6 km/h 82 % 0.0 mm open2300-1.11 W/m2
04:10 12.4 °C 9.2 °C 1008.0 hPa Calm   5.1 km/h 81 % 0.0 mm open2300-1.11 W/m2
05:11 12.3 °C 9.3 °C 1008.0 hPa NW 11.6 km/h 11.6 km/h 82 % 0.0 mm open2300-1.11 W/m2
06:10 12.2 °C 9.2 °C 1007.3 hPa Calm   6.4 km/h 82 % 0.0 mm open2300-1.11 W/m2
07:11 12.1 °C 8.9 °C 1007.0 hPa North 9.8 km/h 9.8 km/h 81 % 0.0 mm open2300-1.11 W/m2
08:10 12.0 °C 8.5 °C 1006.3 hPa North 9.8 km/h 40.7 km/h 79 % 0.0 mm open2300-1.11 W/m2
09:11 12.6 °C 8.4 °C 1006.7 hPa NNW 28.5 km/h 28.5 km/h 76 % 0.0 mm open2300-1.11 W/m2
10:10 13.4 °C 8.1 °C 1007.0 hPa NNW 17.9 km/h 37 km/h 70 % 0.0 mm open2300-1.11 W/m2
11:11 13.6 °C 7.1 °C 1007.0 hPa WNW 29.5 km/h 34.8 km/h 65 % 0.0 mm open2300-1.11 W/m2
12:10 13.4 °C 6.5 °C 1007.0 hPa NNW 9.8 km/h 13.2 km/h 63 % 0.0 mm open2300-1.11 W/m2
13:11 13.8 °C 5.2 °C 1005.6 hPa West 29 km/h 42.2 km/h 56 % 0.0 mm open2300-1.11 W/m2
14:11 13.3 °C 3.3 °C 1005.6 hPa NNE 15 km/h 15 km/h 51 % 0.0 mm open2300-1.11 W/m2
15:11 13.4 °C 2.9 °C 1005.3 hPa WNW 47.3 km/h 47.3 km/h 49 % 0.0 mm open2300-1.11 W/m2
16:10 13.6 °C 0.9 °C 1004.6 hPa NNW 30.7 km/h 44.6 km/h 42 % 0.0 mm open2300-1.11 W/m2
17:11 12.9 °C -0.4 °C 1004.3 hPa NNW 53.3 km/h 53.3 km/h 40 % 0.0 mm open2300-1.11 W/m2
18:10 11.8 °C -0.8 °C 1005.0 hPa NW 83.4 km/h 83.4 km/h 42 % 0.0 mm open2300-1.11 W/m2
19:11 11.1 °C -1.4 °C 1005.0 hPa NNW 43.5 km/h 64.7 km/h 42 % 0.0 mm open2300-1.11 W/m2
20:10 10.5 °C -1.0 °C 1004.6 hPa NNE 51 km/h 51 km/h 45 % 0.0 mm open2300-1.11 W/m2
21:11 10.0 °C -0.8 °C 1006.0 hPa North 23 km/h 26.7 km/h 47 % 0.0 mm open2300-1.11 W/m2
22:10 9.6 °C -0.6 °C 1006.0 hPa NNW 27.7 km/h 81.1 km/h 49 % 0.0 mm open2300-1.11 W/m2
23:11 9.2 °C -0.7 °C 1005.6 hPa NNW 44.1 km/h 75.8 km/h 50 % 0.0 mm open2300-1.11 W/m2
Observations météo à CASSIS
WU-History script by Weather Underground - 1 mb